sensor_id;sensor_type;location;lat;lon;timestamp;pressure;altitude;pressure_sealevel;temperature;humidity
32251;BME280;41295;48.518;9.206;2023-11-19T00:01:08;97154.56;;;8.24;92.98
32251;BME280;41295;48.518;9.206;2023-11-19T00:03:11;97149.13;;;8.32;93.19
32251;BME280;41295;48.518;9.206;2023-11-19T00:05:14;97159.66;;;8.27;92.53
32251;BME280;41295;48.518;9.206;2023-11-19T00:07:17;97166.78;;;8.21;92.81
32251;BME280;41295;48.518;9.206;2023-11-19T00:09:21;97165.91;;;8.20;93.41
32251;BME280;41295;48.518;9.206;2023-11-19T00:11:25;97168.66;;;8.15;93.71
32251;BME280;41295;48.518;9.206;2023-11-19T00:13:28;97166.78;;;8.21;94.03
32251;BME280;41295;48.518;9.206;2023-11-19T00:15:31;97165.19;;;8.16;94.03
32251;BME280;41295;48.518;9.206;2023-11-19T00:17:34;97157.25;;;8.21;94.06
32251;BME280;41295;48.518;9.206;2023-11-19T00:19:36;97155.63;;;8.17;93.89
32251;BME280;41295;48.518;9.206;2023-11-19T00:21:38;97145.91;;;8.24;94.18
32251;BME280;41295;48.518;9.206;2023-11-19T00:23:42;97149.47;;;8.21;94.30
32251;BME280;41295;48.518;9.206;2023-11-19T00:25:45;97143.34;;;8.22;94.53
32251;BME280;41295;48.518;9.206;2023-11-19T00:27:50;97139.06;;;8.21;94.92
32251;BME280;41295;48.518;9.206;2023-11-19T00:29:53;97131.28;;;8.21;95.07
32251;BME280;41295;48.518;9.206;2023-11-19T00:31:55;97142.31;;;8.28;95.59
32251;BME280;41295;48.518;9.206;2023-11-19T00:33:58;97138.75;;;8.32;95.14
32251;BME280;41295;48.518;9.206;2023-11-19T00:36:01;97136.09;;;8.34;95.12
32251;BME280;41295;48.518;9.206;2023-11-19T00:38:04;97132.41;;;8.41;95.13
32251;BME280;41295;48.518;9.206;2023-11-19T00:40:06;97137.44;;;8.46;95.44
32251;BME280;41295;48.518;9.206;2023-11-19T00:42:09;97143.34;;;8.51;94.58
32251;BME280;41295;48.518;9.206;2023-11-19T00:44:13;97130.31;;;8.52;95.61
32251;BME280;41295;48.518;9.206;2023-11-19T00:46:15;97131.09;;;8.56;96.14
32251;BME280;41295;48.518;9.206;2023-11-19T00:48:18;97127.56;;;8.59;95.95
32251;BME280;41295;48.518;9.206;2023-11-19T00:50:24;97114.72;;;8.52;96.65
32251;BME280;41295;48.518;9.206;2023-11-19T00:52:26;97113.94;;;8.50;96.42
32251;BME280;41295;48.518;9.206;2023-11-19T00:54:29;97115.53;;;8.54;96.53
32251;BME280;41295;48.518;9.206;2023-11-19T00:56:34;97110.28;;;8.56;97.09
32251;BME280;41295;48.518;9.206;2023-11-19T00:58:38;97102.44;;;8.59;96.96
32251;BME280;41295;48.518;9.206;2023-11-19T01:00:42;97102.53;;;8.54;97.48
32251;BME280;41295;48.518;9.206;2023-11-19T01:02:46;97101.63;;;8.57;97.51
32251;BME280;41295;48.518;9.206;2023-11-19T01:04:52;97100.53;;;8.64;97.53
32251;BME280;41295;48.518;9.206;2023-11-19T01:06:55;97106.72;;;8.60;98.16
32251;BME280;41295;48.518;9.206;2023-11-19T01:08:58;97099.44;;;8.72;98.20
32251;BME280;41295;48.518;9.206;2023-11-19T01:11:01;97095.91;;;8.73;97.58
32251;BME280;41295;48.518;9.206;2023-11-19T01:13:03;97100.81;;;8.82;97.57
32251;BME280;41295;48.518;9.206;2023-11-19T01:15:08;97106.19;;;8.76;97.51
32251;BME280;41295;48.518;9.206;2023-11-19T01:17:12;97103.50;;;8.79;97.71
32251;BME280;41295;48.518;9.206;2023-11-19T01:19:14;97101.56;;;8.86;98.03
32251;BME280;41295;48.518;9.206;2023-11-19T01:21:18;97105.06;;;8.85;97.50
32251;BME280;41295;48.518;9.206;2023-11-19T01:23:20;97105.25;;;9.06;96.41
32251;BME280;41295;48.518;9.206;2023-11-19T01:25:23;97098.13;;;9.11;96.20
32251;BME280;41295;48.518;9.206;2023-11-19T01:27:26;97097.09;;;9.15;95.85
32251;BME280;41295;48.518;9.206;2023-11-19T01:29:28;97092.69;;;9.17;96.44
32251;BME280;41295;48.518;9.206;2023-11-19T01:31:31;97090.28;;;9.12;96.81
32251;BME280;41295;48.518;9.206;2023-11-19T01:33:37;97080.88;;;9.08;96.88
32251;BME280;41295;48.518;9.206;2023-11-19T01:35:39;97067.81;;;9.10;97.46
32251;BME280;41295;48.518;9.206;2023-11-19T01:37:42;97062.53;;;9.11;97.92
32251;BME280;41295;48.518;9.206;2023-11-19T01:39:44;97062.09;;;9.00;98.12
32251;BME280;41295;48.518;9.206;2023-11-19T01:41:59;97061.06;;;9.04;98.94
32251;BME280;41295;48.518;9.206;2023-11-19T01:44:02;97058.44;;;9.04;99.27
32251;BME280;41295;48.518;9.206;2023-11-19T01:46:05;97054.06;;;9.06;99.19
32251;BME280;41295;48.518;9.206;2023-11-19T01:48:11;97049.66;;;9.08;99.13
32251;BME280;41295;48.518;9.206;2023-11-19T01:50:15;97053.63;;;9.19;98.39
32251;BME280;41295;48.518;9.206;2023-11-19T01:52:18;97054.84;;;9.08;98.82
32251;BME280;41295;48.518;9.206;2023-11-19T01:54:21;97050.00;;;9.23;98.93
32251;BME280;41295;48.518;9.206;2023-11-19T01:56:25;97058.81;;;9.19;98.82
32251;BME280;41295;48.518;9.206;2023-11-19T01:58:28;97048.59;;;9.14;99.12
32251;BME280;41295;48.518;9.206;2023-11-19T02:00:32;97054.72;;;9.11;99.67
32251;BME280;41295;48.518;9.206;2023-11-19T02:02:35;97050.19;;;9.18;99.81
32251;BME280;41295;48.518;9.206;2023-11-19T02:04:38;97056.34;;;9.16;100.00
32251;BME280;41295;48.518;9.206;2023-11-19T02:06:43;97062.41;;;9.16;100.00
32251;BME280;41295;48.518;9.206;2023-11-19T02:08:47;97062.28;;;9.19;99.45
32251;BME280;41295;48.518;9.206;2023-11-19T02:10:50;97049.63;;;9.34;99.32
32251;BME280;41295;48.518;9.206;2023-11-19T02:12:53;97044.97;;;9.18;99.60
32251;BME280;41295;48.518;9.206;2023-11-19T02:15:07;97041.41;;;9.21;100.00
32251;BME280;41295;48.518;9.206;2023-11-19T02:17:25;97037.41;;;9.36;99.52
32251;BME280;41295;48.518;9.206;2023-11-19T02:19:27;97049.06;;;9.25;100.00
32251;BME280;41295;48.518;9.206;2023-11-19T02:21:30;97046.09;;;9.35;99.99
32251;BME280;41295;48.518;9.206;2023-11-19T02:23:34;97049.50;;;9.37;100.00
32251;BME280;41295;48.518;9.206;2023-11-19T02:25:38;97049.75;;;9.31;100.00
32251;BME280;41295;48.518;9.206;2023-11-19T02:27:48;97046.47;;;9.25;100.00
32251;BME280;41295;48.518;9.206;2023-11-19T02:29:53;97041.66;;;9.38;100.00
32251;BME280;41295;48.518;9.206;2023-11-19T02:31:56;97037.47;;;9.34;100.00
32251;BME280;41295;48.518;9.206;2023-11-19T02:33:59;97037.06;;;9.45;100.00
32251;BME280;41295;48.518;9.206;2023-11-19T02:36:04;97042.50;;;9.39;100.00
32251;BME280;41295;48.518;9.206;2023-11-19T02:38:08;97039.50;;;9.50;100.00
32251;BME280;41295;48.518;9.206;2023-11-19T02:40:11;97034.75;;;9.37;100.00
32251;BME280;41295;48.518;9.206;2023-11-19T02:42:15;97020.72;;;9.42;100.00
32251;BME280;41295;48.518;9.206;2023-11-19T02:44:19;97014.09;;;9.33;100.00
32251;BME280;41295;48.518;9.206;2023-11-19T02:46:21;97020.81;;;9.38;100.00
32251;BME280;41295;48.518;9.206;2023-11-19T02:48:24;97035.94;;;9.53;100.00
32251;BME280;41295;48.518;9.206;2023-11-19T02:50:27;97028.47;;;9.43;100.00
32251;BME280;41295;48.518;9.206;2023-11-19T02:52:30;97035.13;;;9.50;100.00
32251;BME280;41295;48.518;9.206;2023-11-19T02:54:36;97037.13;;;9.44;100.00
32251;BME280;41295;48.518;9.206;2023-11-19T02:56:42;97040.75;;;9.40;100.00
32251;BME280;41295;48.518;9.206;2023-11-19T02:58:45;97036.84;;;9.52;100.00
32251;BME280;41295;48.518;9.206;2023-11-19T03:00:49;97046.91;;;9.61;100.00
32251;BME280;41295;48.518;9.206;2023-11-19T03:02:58;97039.84;;;9.65;100.00
32251;BME280;41295;48.518;9.206;2023-11-19T03:05:07;97033.59;;;9.69;100.00
32251;BME280;41295;48.518;9.206;2023-11-19T03:07:10;97041.34;;;9.70;100.00
32251;BME280;41295;48.518;9.206;2023-11-19T03:09:13;97038.81;;;9.69;100.00
32251;BME280;41295;48.518;9.206;2023-11-19T03:11:16;97034.06;;;9.56;100.00
32251;BME280;41295;48.518;9.206;2023-11-19T03:13:17;97040.13;;;9.57;100.00
32251;BME280;41295;48.518;9.206;2023-11-19T03:15:20;97038.00;;;9.67;100.00
32251;BME280;41295;48.518;9.206;2023-11-19T03:17:24;97039.59;;;9.71;100.00
32251;BME280;41295;48.518;9.206;2023-11-19T03:19:28;97048.38;;;9.68;100.00
32251;BME280;41295;48.518;9.206;2023-11-19T03:21:31;97050.81;;;9.73;100.00
32251;BME280;41295;48.518;9.206;2023-11-19T03:23:33;97058.63;;;9.73;100.00
32251;BME280;41295;48.518;9.206;2023-11-19T03:25:36;97060.66;;;9.65;100.00
32251;BME280;41295;48.518;9.206;2023-11-19T03:27:39;97052.22;;;9.58;100.00
32251;BME280;41295;48.518;9.206;2023-11-19T03:29:43;97063.28;;;9.65;100.00
32251;BME280;41295;48.518;9.206;2023-11-19T03:31:44;97055.81;;;9.55;100.00
32251;BME280;41295;48.518;9.206;2023-11-19T03:33:49;97052.34;;;9.55;100.00
32251;BME280;41295;48.518;9.206;2023-11-19T03:35:51;97057.22;;;9.64;100.00
32251;BME280;41295;48.518;9.206;2023-11-19T03:37:54;97056.34;;;9.63;100.00
32251;BME280;41295;48.518;9.206;2023-11-19T03:39:56;97051.16;;;9.63;100.00
32251;BME280;41295;48.518;9.206;2023-11-19T03:42:04;97040.91;;;9.59;100.00
32251;BME280;41295;48.518;9.206;2023-11-19T03:44:07;97042.78;;;9.55;100.00
32251;BME280;41295;48.518;9.206;2023-11-19T03:46:17;97047.94;;;9.57;100.00
32251;BME280;41295;48.518;9.206;2023-11-19T03:48:20;97049.88;;;9.74;100.00
32251;BME280;41295;48.518;9.206;2023-11-19T03:50:25;97040.28;;;9.76;100.00
32251;BME280;41295;48.518;9.206;2023-11-19T03:52:28;97037.13;;;9.68;100.00
32251;BME280;41295;48.518;9.206;2023-11-19T03:54:30;97042.72;;;9.81;100.00
32251;BME280;41295;48.518;9.206;2023-11-19T03:56:34;97044.53;;;9.79;100.00
32251;BME280;41295;48.518;9.206;2023-11-19T03:58:37;97039.38;;;9.77;100.00
32251;BME280;41295;48.518;9.206;2023-11-19T04:00:40;97031.31;;;9.83;100.00
32251;BME280;41295;48.518;9.206;2023-11-19T04:02:43;97043.47;;;9.83;100.00
32251;BME280;41295;48.518;9.206;2023-11-19T04:04:46;97043.72;;;9.77;100.00
32251;BME280;41295;48.518;9.206;2023-11-19T04:06:51;97049.00;;;9.75;100.00
32251;BME280;41295;48.518;9.206;2023-11-19T04:08:53;97042.94;;;9.74;100.00
32251;BME280;41295;48.518;9.206;2023-11-19T04:10:56;97051.00;;;9.68;100.00
32251;BME280;41295;48.518;9.206;2023-11-19T04:12:59;97049.00;;;9.75;100.00
32251;BME280;41295;48.518;9.206;2023-11-19T04:15:03;97049.06;;;9.73;100.00
32251;BME280;41295;48.518;9.206;2023-11-19T04:17:06;97039.84;;;9.65;100.00
32251;BME280;41295;48.518;9.206;2023-11-19T04:19:09;97024.09;;;9.68;100.00
32251;BME280;41295;48.518;9.206;2023-11-19T04:21:12;97026.19;;;9.82;100.00
32251;BME280;41295;48.518;9.206;2023-11-19T04:23:16;97035.66;;;9.83;100.00
32251;BME280;41295;48.518;9.206;2023-11-19T04:25:19;97040.53;;;9.92;100.00
32251;BME280;41295;48.518;9.206;2023-11-19T04:27:21;97044.00;;;9.93;100.00
32251;BME280;41295;48.518;9.206;2023-11-19T04:29:44;97045.13;;;9.85;100.00
32251;BME280;41295;48.518;9.206;2023-11-19T04:31:48;97047.47;;;9.92;100.00
32251;BME280;41295;48.518;9.206;2023-11-19T04:33:51;97051.88;;;9.91;100.00
32251;BME280;41295;48.518;9.206;2023-11-19T04:35:56;97051.06;;;9.89;100.00
32251;BME280;41295;48.518;9.206;2023-11-19T04:37:58;97043.06;;;9.94;100.00
32251;BME280;41295;48.518;9.206;2023-11-19T04:40:03;97050.00;;;9.95;100.00
32251;BME280;41295;48.518;9.206;2023-11-19T04:42:05;97056.22;;;9.91;100.00
32251;BME280;41295;48.518;9.206;2023-11-19T04:44:09;97050.78;;;9.97;100.00
32251;BME280;41295;48.518;9.206;2023-11-19T04:46:10;97061.16;;;9.98;100.00
32251;BME280;41295;48.518;9.206;2023-11-19T04:48:13;97063.56;;;10.03;100.00
32251;BME280;41295;48.518;9.206;2023-11-19T04:50:16;97066.63;;;9.91;100.00
32251;BME280;41295;48.518;9.206;2023-11-19T04:52:19;97071.44;;;10.02;100.00
32251;BME280;41295;48.518;9.206;2023-11-19T04:54:21;97067.50;;;9.91;100.00
32251;BME280;41295;48.518;9.206;2023-11-19T04:56:25;97071.63;;;9.97;100.00
32251;BME280;41295;48.518;9.206;2023-11-19T04:58:29;97062.16;;;9.94;100.00
32251;BME280;41295;48.518;9.206;2023-11-19T05:00:32;97060.97;;;10.03;100.00
32251;BME280;41295;48.518;9.206;2023-11-19T05:02:34;97052.41;;;9.99;100.00
32251;BME280;41295;48.518;9.206;2023-11-19T05:04:37;97055.81;;;10.02;100.00
32251;BME280;41295;48.518;9.206;2023-11-19T05:06:40;97061.22;;;9.97;100.00
32251;BME280;41295;48.518;9.206;2023-11-19T05:08:42;97062.47;;;10.09;100.00
32251;BME280;41295;48.518;9.206;2023-11-19T05:10:45;97068.56;;;10.08;100.00
32251;BME280;41295;48.518;9.206;2023-11-19T05:12:49;97061.03;;;10.02;100.00
32251;BME280;41295;48.518;9.206;2023-11-19T05:14:53;97056.16;;;9.92;100.00
32251;BME280;41295;48.518;9.206;2023-11-19T05:16:55;97063.50;;;10.05;100.00
32251;BME280;41295;48.518;9.206;2023-11-19T05:18:57;97068.50;;;10.09;100.00
32251;BME280;41295;48.518;9.206;2023-11-19T05:21:00;97060.53;;;10.14;100.00
32251;BME280;41295;48.518;9.206;2023-11-19T05:23:03;97060.66;;;10.11;100.00
32251;BME280;41295;48.518;9.206;2023-11-19T05:25:06;97062.53;;;10.30;100.00
32251;BME280;41295;48.518;9.206;2023-11-19T05:27:10;97057.63;;;10.22;100.00
32251;BME280;41295;48.518;9.206;2023-11-19T05:29:16;97049.78;;;10.22;100.00
32251;BME280;41295;48.518;9.206;2023-11-19T05:31:19;97050.84;;;10.18;100.00
32251;BME280;41295;48.518;9.206;2023-11-19T05:33:22;97041.09;;;10.23;100.00
32251;BME280;41295;48.518;9.206;2023-11-19T05:35:24;97050.34;;;10.30;100.00
32251;BME280;41295;48.518;9.206;2023-11-19T05:37:27;97044.94;;;10.35;100.00
32251;BME280;41295;48.518;9.206;2023-11-19T05:39:30;97051.81;;;10.38;100.00
32251;BME280;41295;48.518;9.206;2023-11-19T05:41:31;97052.63;;;10.38;100.00
32251;BME280;41295;48.518;9.206;2023-11-19T05:43:34;97061.97;;;10.44;100.00
32251;BME280;41295;48.518;9.206;2023-11-19T05:45:38;97055.44;;;10.33;100.00
32251;BME280;41295;48.518;9.206;2023-11-19T05:47:41;97050.81;;;10.40;100.00
32251;BME280;41295;48.518;9.206;2023-11-19T05:49:44;97052.59;;;10.40;100.00
32251;BME280;41295;48.518;9.206;2023-11-19T05:51:46;97050.50;;;10.27;100.00
32251;BME280;41295;48.518;9.206;2023-11-19T05:53:48;97049.25;;;10.36;100.00
32251;BME280;41295;48.518;9.206;2023-11-19T05:55:51;97045.22;;;10.29;100.00
32251;BME280;41295;48.518;9.206;2023-11-19T05:57:57;97050.50;;;10.27;100.00
32251;BME280;41295;48.518;9.206;2023-11-19T05:59:59;97055.56;;;10.30;100.00
32251;BME280;41295;48.518;9.206;2023-11-19T06:02:03;97058.78;;;10.37;100.00
32251;BME280;41295;48.518;9.206;2023-11-19T06:04:05;97060.28;;;10.43;100.00
32251;BME280;41295;48.518;9.206;2023-11-19T06:06:08;97059.28;;;10.45;100.00
32251;BME280;41295;48.518;9.206;2023-11-19T06:08:12;97062.97;;;10.41;100.00
32251;BME280;41295;48.518;9.206;2023-11-19T06:10:16;97065.88;;;10.33;100.00
32251;BME280;41295;48.518;9.206;2023-11-19T06:12:18;97063.91;;;10.39;100.00
32251;BME280;41295;48.518;9.206;2023-11-19T06:14:20;97070.59;;;10.46;100.00
32251;BME280;41295;48.518;9.206;2023-11-19T06:16:26;97062.47;;;10.31;100.00
32251;BME280;41295;48.518;9.206;2023-11-19T06:18:30;97063.38;;;10.30;100.00
32251;BME280;41295;48.518;9.206;2023-11-19T06:20:33;97067.81;;;10.28;100.00
32251;BME280;41295;48.518;9.206;2023-11-19T06:22:38;97065.41;;;10.23;100.00
32251;BME280;41295;48.518;9.206;2023-11-19T06:24:41;97066.88;;;10.29;100.00
32251;BME280;41295;48.518;9.206;2023-11-19T06:26:44;97070.78;;;10.41;100.00
32251;BME280;41295;48.518;9.206;2023-11-19T06:28:46;97064.94;;;10.34;100.00
32251;BME280;41295;48.518;9.206;2023-11-19T06:30:48;97073.38;;;10.41;100.00
32251;BME280;41295;48.518;9.206;2023-11-19T06:32:51;97073.38;;;10.41;100.00
32251;BME280;41295;48.518;9.206;2023-11-19T06:34:56;97065.88;;;10.33;100.00
32251;BME280;41295;48.518;9.206;2023-11-19T06:36:59;97072.19;;;10.50;100.00
32251;BME280;41295;48.518;9.206;2023-11-19T06:39:05;97073.69;;;10.33;100.00
32251;BME280;41295;48.518;9.206;2023-11-19T06:41:07;97076.47;;;10.29;100.00
32251;BME280;41295;48.518;9.206;2023-11-19T06:43:11;97084.91;;;10.35;100.00
32251;BME280;41295;48.518;9.206;2023-11-19T06:45:13;97081.94;;;10.45;100.00
32251;BME280;41295;48.518;9.206;2023-11-19T06:47:16;97076.66;;;10.46;100.00
32251;BME280;41295;48.518;9.206;2023-11-19T06:49:19;97086.75;;;10.56;100.00
32251;BME280;41295;48.518;9.206;2023-11-19T06:51:24;97082.00;;;10.43;100.00
32251;BME280;41295;48.518;9.206;2023-11-19T06:53:27;97093.56;;;10.36;100.00
32251;BME280;41295;48.518;9.206;2023-11-19T06:55:30;97094.81;;;10.50;100.00
32251;BME280;41295;48.518;9.206;2023-11-19T06:57:33;97101.53;;;10.55;100.00
32251;BME280;41295;48.518;9.206;2023-11-19T06:59:36;97105.97;;;10.53;100.00
32251;BME280;41295;48.518;9.206;2023-11-19T07:01:38;97100.69;;;10.55;100.00
32251;BME280;41295;48.518;9.206;2023-11-19T07:03:45;97093.38;;;10.63;100.00
32251;BME280;41295;48.518;9.206;2023-11-19T07:05:49;97099.94;;;10.51;100.00
32251;BME280;41295;48.518;9.206;2023-11-19T07:07:53;97090.31;;;10.53;100.00
32251;BME280;41295;48.518;9.206;2023-11-19T07:09:56;97097.03;;;10.59;100.00
32251;BME280;41295;48.518;9.206;2023-11-19T07:11:58;97095.09;;;10.64;100.00
32251;BME280;41295;48.518;9.206;2023-11-19T07:14:01;97100.38;;;10.63;100.00
32251;BME280;41295;48.518;9.206;2023-11-19T07:16:05;97103.81;;;10.63;100.00
32251;BME280;41295;48.518;9.206;2023-11-19T07:18:11;97099.66;;;10.59;100.00
32251;BME280;41295;48.518;9.206;2023-11-19T07:20:14;97096.13;;;10.60;100.00
32251;BME280;41295;48.518;9.206;2023-11-19T07:22:17;97088.44;;;10.57;100.00
32251;BME280;41295;48.518;9.206;2023-11-19T07:24:21;97083.34;;;10.54;100.00
32251;BME280;41295;48.518;9.206;2023-11-19T07:26:24;97090.31;;;10.53;100.00
32251;BME280;41295;48.518;9.206;2023-11-19T07:28:27;97090.59;;;10.68;100.00
32251;BME280;41295;48.518;9.206;2023-11-19T07:30:30;97095.25;;;10.59;100.00
32251;BME280;41295;48.518;9.206;2023-11-19T07:32:33;97096.84;;;10.64;100.00
32251;BME280;41295;48.518;9.206;2023-11-19T07:34:35;97102.44;;;10.54;100.00
32251;BME280;41295;48.518;9.206;2023-11-19T07:36:38;97106.31;;;10.66;100.00
32251;BME280;41295;48.518;9.206;2023-11-19T07:38:41;97118.00;;;10.78;100.00
32251;BME280;41295;48.518;9.206;2023-11-19T07:40:45;97122.56;;;10.73;100.00
32251;BME280;41295;48.518;9.206;2023-11-19T07:42:51;97117.19;;;10.76;100.00
32251;BME280;41295;48.518;9.206;2023-11-19T07:44:55;97123.06;;;10.81;100.00
32251;BME280;41295;48.518;9.206;2023-11-19T07:46:58;97129.53;;;10.73;100.00
32251;BME280;41295;48.518;9.206;2023-11-19T07:49:01;97121.97;;;10.66;100.00
32251;BME280;41295;48.518;9.206;2023-11-19T07:51:04;97124.06;;;10.79;100.00
32251;BME280;41295;48.518;9.206;2023-11-19T07:53:07;97123.34;;;10.75;100.00
32251;BME280;41295;48.518;9.206;2023-11-19T07:55:10;97132.28;;;10.90;100.00
32251;BME280;41295;48.518;9.206;2023-11-19T07:57:13;97126.03;;;10.94;100.00
32251;BME280;41295;48.518;9.206;2023-11-19T07:59:16;97132.13;;;10.95;100.00
32251;BME280;41295;48.518;9.206;2023-11-19T08:01:18;97126.34;;;10.87;100.00
32251;BME280;41295;48.518;9.206;2023-11-19T08:03:21;97122.22;;;10.81;100.00
32251;BME280;41295;48.518;9.206;2023-11-19T08:05:24;97119.75;;;10.78;100.00
32251;BME280;41295;48.518;9.206;2023-11-19T08:07:27;97122.50;;;10.75;100.00
32251;BME280;41295;48.518;9.206;2023-11-19T08:09:29;97137.19;;;10.77;100.00
32251;BME280;41295;48.518;9.206;2023-11-19T08:11:32;97134.09;;;10.88;100.00
32251;BME280;41295;48.518;9.206;2023-11-19T08:13:36;97133.00;;;10.94;100.00
32251;BME280;41295;48.518;9.206;2023-11-19T08:15:39;97131.47;;;10.90;100.00
32251;BME280;41295;48.518;9.206;2023-11-19T08:17:42;97123.16;;;10.80;100.00
32251;BME280;41295;48.518;9.206;2023-11-19T08:19:45;97114.47;;;10.79;100.00
32251;BME280;41295;48.518;9.206;2023-11-19T08:21:47;97119.56;;;10.82;100.00
32251;BME280;41295;48.518;9.206;2023-11-19T08:23:50;97121.53;;;10.77;100.00
32251;BME280;41295;48.518;9.206;2023-11-19T08:25:53;97107.03;;;10.70;100.00
32251;BME280;41295;48.518;9.206;2023-11-19T08:27:55;97108.28;;;10.82;100.00
32251;BME280;41295;48.518;9.206;2023-11-19T08:29:59;97108.50;;;10.77;100.00
32251;BME280;41295;48.518;9.206;2023-11-19T08:32:03;97106.63;;;10.79;100.00
32251;BME280;41295;48.518;9.206;2023-11-19T08:34:06;97109.00;;;10.86;100.00
32251;BME280;41295;48.518;9.206;2023-11-19T08:36:15;97113.59;;;11.01;100.00
32251;BME280;41295;48.518;9.206;2023-11-19T08:38:18;97112.94;;;10.96;100.00
32251;BME280;41295;48.518;9.206;2023-11-19T08:40:23;97115.94;;;11.07;100.00
32251;BME280;41295;48.518;9.206;2023-11-19T08:42:27;97116.13;;;11.03;100.00
32251;BME280;41295;48.518;9.206;2023-11-19T08:44:29;97112.16;;;11.15;99.08
32251;BME280;41295;48.518;9.206;2023-11-19T08:46:33;97116.97;;;11.24;98.63
32251;BME280;41295;48.518;9.206;2023-11-19T08:48:36;97109.53;;;11.36;97.13
32251;BME280;41295;48.518;9.206;2023-11-19T08:50:38;97123.22;;;11.41;96.35
32251;BME280;41295;48.518;9.206;2023-11-19T08:52:41;97113.69;;;11.40;95.79
32251;BME280;41295;48.518;9.206;2023-11-19T08:54:43;97103.84;;;11.47;95.67
32251;BME280;41295;48.518;9.206;2023-11-19T08:56:46;97104.09;;;11.40;95.85
32251;BME280;41295;48.518;9.206;2023-11-19T08:58:49;97111.59;;;11.48;95.55
32251;BME280;41295;48.518;9.206;2023-11-19T09:00:52;97102.03;;;11.49;95.62
32251;BME280;41295;48.518;9.206;2023-11-19T09:02:56;97108.28;;;11.45;96.07
32251;BME280;41295;48.518;9.206;2023-11-19T09:04:59;97115.97;;;11.48;96.48
32251;BME280;41295;48.518;9.206;2023-11-19T09:07:03;97112.50;;;11.47;96.73
32251;BME280;41295;48.518;9.206;2023-11-19T09:09:06;97114.16;;;11.50;96.53
32251;BME280;41295;48.518;9.206;2023-11-19T09:11:09;97112.88;;;11.59;96.44
32251;BME280;41295;48.518;9.206;2023-11-19T09:13:13;97117.81;;;11.65;95.72
32251;BME280;41295;48.518;9.206;2023-11-19T09:15:16;97112.75;;;11.62;95.67
32251;BME280;41295;48.518;9.206;2023-11-19T09:17:19;97107.91;;;11.73;94.60
32251;BME280;41295;48.518;9.206;2023-11-19T09:19:23;97105.84;;;11.61;94.77
32251;BME280;41295;48.518;9.206;2023-11-19T09:21:25;97120.09;;;11.73;94.48
32251;BME280;41295;48.518;9.206;2023-11-19T09:23:27;97125.81;;;11.81;93.59
32251;BME280;41295;48.518;9.206;2023-11-19T09:25:31;97124.16;;;11.80;93.39
32251;BME280;41295;48.518;9.206;2023-11-19T09:27:46;97125.19;;;11.76;93.67
32251;BME280;41295;48.518;9.206;2023-11-19T09:29:48;97126.34;;;11.70;94.11
32251;BME280;41295;48.518;9.206;2023-11-19T09:31:56;97122.72;;;11.73;94.46
32251;BME280;41295;48.518;9.206;2023-11-19T09:33:59;97113.53;;;11.83;93.97
32251;BME280;41295;48.518;9.206;2023-11-19T09:36:03;97126.13;;;11.94;92.25
32251;BME280;41295;48.518;9.206;2023-11-19T09:38:06;97131.00;;;12.02;91.55
32251;BME280;41295;48.518;9.206;2023-11-19T09:40:09;97131.72;;;12.06;91.51
32251;BME280;41295;48.518;9.206;2023-11-19T09:42:11;97132.47;;;12.09;91.22
32251;BME280;41295;48.518;9.206;2023-11-19T09:44:14;97131.44;;;12.12;90.90
32251;BME280;41295;48.518;9.206;2023-11-19T09:46:21;97131.44;;;12.12;90.80
32251;BME280;41295;48.518;9.206;2023-11-19T09:48:26;97110.75;;;12.07;90.74
32251;BME280;41295;48.518;9.206;2023-11-19T09:50:29;97134.00;;;12.13;90.43
32251;BME280;41295;48.518;9.206;2023-11-19T09:52:33;97139.09;;;12.17;90.17
32251;BME280;41295;48.518;9.206;2023-11-19T09:54:36;97129.13;;;12.25;89.96
32251;BME280;41295;48.518;9.206;2023-11-19T09:56:38;97136.25;;;12.21;89.70
32251;BME280;41295;48.518;9.206;2023-11-19T09:58:41;97137.66;;;12.29;89.29
32251;BME280;41295;48.518;9.206;2023-11-19T10:00:44;97133.34;;;12.27;89.21
32251;BME280;41295;48.518;9.206;2023-11-19T10:03:07;97121.69;;;12.35;89.24
32251;BME280;41295;48.518;9.206;2023-11-19T10:05:12;97116.44;;;12.35;88.73
32251;BME280;41295;48.518;9.206;2023-11-19T10:07:16;97116.25;;;12.39;88.05
32251;BME280;41295;48.518;9.206;2023-11-19T10:09:20;97117.84;;;12.42;88.42
32251;BME280;41295;48.518;9.206;2023-11-19T10:11:23;97110.47;;;12.33;88.54
32251;BME280;41295;48.518;9.206;2023-11-19T10:13:26;97107.19;;;12.27;89.00
32251;BME280;41295;48.518;9.206;2023-11-19T10:15:35;97107.84;;;12.33;89.10
32251;BME280;41295;48.518;9.206;2023-11-19T10:17:38;97100.03;;;12.33;89.53
32251;BME280;41295;48.518;9.206;2023-11-19T10:19:41;97099.44;;;12.45;88.15
32251;BME280;41295;48.518;9.206;2023-11-19T10:21:45;97100.34;;;12.44;87.08
32251;BME280;41295;48.518;9.206;2023-11-19T10:23:49;97112.44;;;12.47;86.87
32251;BME280;41295;48.518;9.206;2023-11-19T10:26:02;97117.56;;;12.48;87.04
32251;BME280;41295;48.518;9.206;2023-11-19T10:28:06;97104.97;;;12.57;87.16
32251;BME280;41295;48.518;9.206;2023-11-19T10:30:10;97109.75;;;12.66;85.74
32251;BME280;41295;48.518;9.206;2023-11-19T10:32:13;97102.59;;;12.70;85.55
32251;BME280;41295;48.518;9.206;2023-11-19T10:34:27;97108.53;;;12.73;84.89
32251;BME280;41295;48.518;9.206;2023-11-19T10:36:38;97101.59;;;12.72;84.28
32251;BME280;41295;48.518;9.206;2023-11-19T10:38:52;97118.06;;;12.74;84.09
32251;BME280;41295;48.518;9.206;2023-11-19T10:40:56;97104.28;;;12.71;84.27
32251;BME280;41295;48.518;9.206;2023-11-19T10:43:02;97101.31;;;12.79;83.93
32251;BME280;41295;48.518;9.206;2023-11-19T10:45:06;97095.22;;;12.78;84.02
32251;BME280;41295;48.518;9.206;2023-11-19T10:47:23;97097.38;;;12.70;84.52
32251;BME280;41295;48.518;9.206;2023-11-19T10:49:30;97092.00;;;12.73;84.28
32251;BME280;41295;48.518;9.206;2023-11-19T10:51:32;97088.06;;;12.82;83.04
32251;BME280;41295;48.518;9.206;2023-11-19T10:53:37;97088.22;;;12.79;82.69
32251;BME280;41295;48.518;9.206;2023-11-19T10:55:40;97082.66;;;12.85;83.01